University City, Missouri
Current Conditions -  °F | °C
As of 9:51 PM on Thursday 27 Nov 2014 (Local Time) from KSTL Reporting Station
Broken Clouds Broken Clouds  
Wind Chill: 20°   Ceiling: 20000
Heat Index: 27°   Visibility: 10mi
Dew Point: 19°   Wind: 6mph
Humidity: 72%   Direction: 110°ESE
Pressure: 30.44"   Gusts: NA
Location:  38.66°N, 90.31°W
Report Text: KSTL 280351Z 11005KT 10SM SCT150 BKN200 M03/M07 A3044 RMK AO2 SLP319 T10281072 $
Loading
Personal Weather Stations






























Interactive Weather Map New forecast layout! Learn more

10-Day Weather Forecast

Advertisements
Track Severe Weather on mobile